Time;durP1;ratioP1;P1;durP2;ratioP2;P2;SDS_P1;SDS_P2;PMS_P1;PMS_P2;Temp;Humidity;BMP_temperature;BMP_pressure;BME280_temperature;BME280_humidity;BME280_pressure;Samples;Min_cycle;Max_cycle;Signal;HPM_P1;HPM_P2
2022/10/24 00:02:21;;;;;;;11.80;6.80;;;;;;;14.34;70.42;100614.51;1756164;81;21358;-72
2022/10/24 00:04:49;;;;;;;9.83;6.13;;;;;;;14.36;70.41;100610.22;1788503;80;21342;-73
2022/10/24 00:07:15;;;;;;;9.90;6.33;;;;;;;14.33;70.23;100600.83;1789178;80;21230;-73
2022/10/24 00:09:44;;;;;;;12.00;6.83;;;;;;;14.34;70.43;100598.94;1755145;81;21387;-73
2022/10/24 00:12:12;;;;;;;13.63;7.20;;;;;;;14.34;70.43;100598.94;1786942;80;21886;-73
2022/10/24 00:14:38;;;;;;;10.20;5.73;;;;;;;14.37;70.33;100599.72;1788778;80;21324;-73
2022/10/24 00:17:06;;;;;;;8.77;5.53;;;;;;;14.43;70.19;100608.00;1787832;80;21335;-73
2022/10/24 00:19:35;;;;;;;10.77;5.63;;;;;;;14.45;70.10;100606.64;1745166;81;21373;-72
2022/10/24 00:22:02;;;;;;;7.50;5.43;;;;;;;14.48;70.00;100608.77;1742602;80;21309;-73
2022/10/24 00:24:29;;;;;;;8.83;5.00;;;;;;;14.48;69.91;100602.05;1750821;82;21851;-72
2022/10/24 00:26:56;;;;;;;7.73;5.40;;;;;;;14.52;70.05;100602.32;1767306;79;21349;-72
2022/10/24 00:29:22;;;;;;;11.10;5.33;;;;;;;14.52;70.05;100602.32;1769125;79;21427;-72
2022/10/24 00:31:50;;;;;;;8.40;5.03;;;;;;;14.52;69.66;100603.66;1758475;79;21781;-73
2022/10/24 00:34:18;;;;;;;9.27;5.20;;;;;;;14.47;69.48;100600.97;1768798;81;21786;-73
2022/10/24 00:36:45;;;;;;;8.40;4.63;;;;;;;14.39;69.22;100598.36;1769135;81;21556;-74
2022/10/24 00:39:12;;;;;;;7.37;5.20;;;;;;;14.39;69.22;100598.36;1782496;79;21891;-73
2022/10/24 00:41:43;;;;;;;9.30;4.90;;;;;;;14.35;69.36;100601.91;1754716;80;21378;-73
2022/10/24 00:44:22;;;;;;;10.10;5.83;;;;;;;14.28;69.38;100594.13;1763306;80;21307;-74
2022/10/24 00:47:04;;;;;;;7.57;5.53;;;;;;;14.20;69.46;100599.57;1779702;80;21419;-73
2022/10/24 00:49:59;;;;;;;7.73;5.20;;;;;;;14.13;69.53;100605.01;1769942;80;21235;-73
2022/10/24 00:52:25;;;;;;;;;;;;;;;14.08;69.60;100617.40;1786750;80;21270;-72
2022/10/24 00:54:53;;;;;;;7.33;5.93;;;;;;;13.97;69.70;100619.86;1782426;79;20432;-73
2022/10/24 00:57:49;;;;;;;9.13;6.33;;;;;;;13.84;69.91;100617.25;1779646;80;21565;-73
2022/10/24 01:00:20;;;;;;;7.60;4.80;;;;;;;13.75;70.15;100622.12;1784704;80;21749;-73
2022/10/24 01:02:47;;;;;;;10.03;5.47;;;;;;;13.66;70.40;100620.58;1760759;81;21400;-73
2022/10/24 01:05:13;;;;;;;7.53;5.23;;;;;;;13.58;70.71;100629.98;1775898;79;21295;-74
2022/10/24 01:08:03;;;;;;;7.77;5.43;;;;;;;13.55;70.90;100630.53;1781646;78;21216;-73
2022/10/24 01:10:57;;;;;;;8.87;5.30;;;;;;;13.52;71.14;100627.09;1791979;78;21131;-74
2022/10/24 01:13:41;;;;;;;7.53;5.03;;;;;;;13.49;71.28;100625.47;1664625;81;21109;-73
2022/10/24 01:16:31;;;;;;;8.23;4.90;;;;;;;13.43;71.50;100626.05;1735256;81;21079;-73
2022/10/24 01:19:26;;;;;;;9.17;5.03;;;;;;;13.36;71.72;100618.29;1761634;81;21225;-71
2022/10/24 01:21:56;;;;;;;7.07;4.67;;;;;;;13.34;71.82;100615.61;1765957;79;21154;-72
2022/10/24 01:24:48;;;;;;;9.10;5.13;;;;;;;13.32;72.05;100623.91;1760976;81;21254;-72
2022/10/24 01:27:24;;;;;;;7.80;5.20;;;;;;;13.33;72.30;100623.41;1761555;81;21174;-72
2022/10/24 01:30:11;;;;;;;6.93;4.80;;;;;;;13.35;72.53;100631.41;1757111;80;21128;-72
2022/10/24 01:33:14;;;;;;;7.77;4.60;;;;;;;13.38;72.59;100628.19;1787195;79;21330;-72
2022/10/24 01:35:59;;;;;;;10.20;4.70;;;;;;;13.45;72.61;100620.39;1778186;80;21349;-72
2022/10/24 01:38:45;;;;;;;8.00;4.80;;;;;;;13.47;72.59;100616.91;1783126;78;21201;-73
2022/10/24 01:41:21;;;;;;;5.63;3.83;;;;;;;13.50;72.55;100604.28;1757155;80;22033;-73
2022/10/24 01:44:01;;;;;;;7.50;4.33;;;;;;;13.50;72.50;100605.63;1753460;80;21233;-72
2022/10/24 01:46:33;;;;;;;6.40;4.20;;;;;;;13.49;72.47;100615.56;1757966;80;21124;-72
2022/10/24 01:49:07;;;;;;;7.17;4.47;;;;;;;13.46;72.52;100608.06;1758086;81;21305;-72
2022/10/24 01:51:35;;;;;;;6.57;4.30;;;;;;;13.43;72.47;100607.27;1789220;78;21092;-71
2022/10/24 01:54:03;;;;;;;7.30;4.53;;;;;;;13.40;72.47;100615.06;1758201;80;21252;-71
2022/10/24 01:56:31;;;;;;;5.83;4.30;;;;;;;13.36;72.41;100609.44;1788960;80;21175;-72
2022/10/24 01:59:29;;;;;;;6.90;4.30;;;;;;;13.34;72.36;100615.61;1788687;80;21260;-72
2022/10/24 02:02:23;;;;;;;7.50;4.60;;;;;;;13.31;72.42;100623.66;1757790;81;21153;-73
2022/10/24 02:05:12;;;;;;;7.90;4.50;;;;;;;13.29;72.48;100623.15;1754022;80;21021;-74
2022/10/24 02:07:41;;;;;;;7.83;4.50;;;;;;;13.27;72.54;100623.95;1766937;81;21762;-72
2022/10/24 02:10:13;;;;;;;7.77;4.40;;;;;;;13.30;72.50;100630.65;1775150;80;21194;-72
2022/10/24 02:12:42;;;;;;;7.43;4.57;;;;;;;13.31;72.40;100623.66;1755189;81;21228;-72
2022/10/24 02:15:20;;;;;;;5.90;4.83;;;;;;;13.34;72.29;100625.00;1789019;80;21269;-71
2022/10/24 02:17:46;;;;;;;9.17;4.77;;;;;;;13.36;72.19;100631.70;1788800;80;21787;-71
2022/10/24 02:20:13;;;;;;;7.63;4.90;;;;;;;13.35;72.16;100631.41;1787167;80;21307;-73
2022/10/24 02:23:00;;;;;;;7.23;5.03;;;;;;;13.34;72.17;100631.16;1754752;81;21253;-74
2022/10/24 02:25:34;;;;;;;7.27;4.07;;;;;;;13.35;72.16;100627.39;1763901;80;21209;-71
2022/10/24 02:28:12;;;;;;;7.73;4.53;;;;;;;13.32;72.17;100629.28;1726124;80;21352;-73
2022/10/24 02:30:42;;;;;;;6.70;4.70;;;;;;;13.29;72.16;100626.34;1785359;80;21827;-73
2022/10/24 02:33:09;;;;;;;8.70;5.17;;;;;;;13.27;72.15;100626.63;1758036;81;21244;-73
2022/10/24 02:35:37;;;;;;;7.80;5.20;;;;;;;13.23;72.17;100624.20;1784937;80;21138;-74
2022/10/24 02:38:20;;;;;;;7.67;4.73;;;;;;;13.23;72.27;100628.77;1784465;80;21771;-72
2022/10/24 02:40:46;;;;;;;7.00;4.80;;;;;;;13.21;72.27;100625.00;1764321;80;21206;-71
2022/10/24 02:43:13;;;;;;;6.60;4.57;;;;;;;13.20;72.23;100619.38;1753465;81;21792;-71
2022/10/24 02:45:40;;;;;;;6.87;4.57;;;;;;;13.16;72.23;100620.98;1738887;81;21317;-73
2022/10/24 02:48:10;;;;;;;6.87;4.67;;;;;;;13.13;72.30;100633.62;1789030;80;21248;-73
2022/10/24 02:50:41;;;;;;;7.80;4.57;;;;;;;13.07;72.47;100636.84;1758010;81;21259;-73
2022/10/24 02:53:12;;;;;;;6.17;4.90;;;;;;;13.06;72.64;100641.11;1788090;80;21781;-73
2022/10/24 02:55:40;;;;;;;9.00;5.40;;;;;;;13.06;72.78;100646.48;1757408;81;21744;-73
2022/10/24 02:58:07;;;;;;;9.20;5.77;;;;;;;13.07;72.88;100645.42;1789141;80;21297;-72
2022/10/24 03:00:34;;;;;;;9.07;5.80;;;;;;;13.05;72.96;100638.98;1758058;81;21111;-72
2022/10/24 03:03:00;;;;;;;8.70;5.77;;;;;;;13.05;73.06;100646.22;1753735;81;21041;-72
2022/10/24 03:05:27;;;;;;;9.00;6.20;;;;;;;13.06;73.16;100647.82;1758795;80;21699;-72
2022/10/24 03:07:53;;;;;;;11.17;6.30;;;;;;;13.06;73.28;100655.86;1772749;81;21283;-73
2022/10/24 03:10:22;;;;;;;8.73;6.30;;;;;;;13.08;73.42;100656.41;1755445;80;21303;-73
2022/10/24 03:12:48;;;;;;;8.27;6.03;;;;;;;13.13;73.48;100656.41;1788053;79;21292;-72
2022/10/24 03:15:15;;;;;;;11.47;6.90;;;;;;;13.18;73.49;100660.41;1746978;80;21322;-72
2022/10/24 03:17:42;;;;;;;12.57;7.10;;;;;;;13.22;73.52;100657.98;1766829;79;21344;-72
2022/10/24 03:20:09;;;;;;;8.50;6.30;;;;;;;13.25;73.52;100669.00;1769215;81;21114;-73
2022/10/24 03:22:35;;;;;;;10.17;6.20;;;;;;;13.28;73.54;100665.78;1783898;79;21278;-72
2022/10/24 03:25:05;;;;;;;7.53;5.47;;;;;;;13.34;73.57;100667.92;1757668;81;21630;-73
2022/10/24 03:27:32;;;;;;;8.50;6.20;;;;;;;13.37;73.51;100664.70;1788932;80;21325;-73
2022/10/24 03:30:01;;;;;;;8.47;5.83;;;;;;;13.37;73.53;100666.03;1790659;80;21181;-73
2022/10/24 03:32:30;;;;;;;10.07;6.07;;;;;;;13.40;73.57;100668.72;1791923;80;21756;-73
2022/10/24 03:34:56;;;;;;;10.43;6.10;;;;;;;13.43;73.56;100664.95;1731400;80;21408;-73
2022/10/24 03:37:23;;;;;;;8.80;6.17;;;;;;;13.47;73.56;100663.86;1783088;80;21188;-73
2022/10/24 03:39:49;;;;;;;11.57;6.10;;;;;;;13.53;73.52;100663.57;1758894;80;21298;-72
2022/10/24 03:42:16;;;;;;;8.87;5.97;;;;;;;13.59;73.49;100663.02;1757769;80;21316;-72
2022/10/24 03:44:43;;;;;;;9.63;6.07;;;;;;;13.59;73.32;100655.77;1786541;78;21227;-72
2022/10/24 03:47:09;;;;;;;10.33;5.60;;;;;;;13.60;73.27;100661.94;1790975;79;21181;-72
2022/10/24 03:49:38;;;;;;;8.57;5.60;;;;;;;13.59;73.25;100649.61;1791394;78;21681;-72
2022/10/24 03:52:05;;;;;;;11.47;6.17;;;;;;;13.58;73.22;100658.17;1791749;80;21171;-72
2022/10/24 03:54:31;;;;;;;11.40;6.40;;;;;;;13.57;73.22;100651.75;1756593;81;21284;-73
2022/10/24 03:56:58;;;;;;;8.63;5.80;;;;;;;13.58;73.19;100655.48;1757445;80;21281;-72
2022/10/24 03:59:25;;;;;;;9.20;6.00;;;;;;;13.59;73.22;100659.00;1757655;81;21384;-72
2022/10/24 04:01:52;;;;;;;9.97;6.10;;;;;;;13.59;73.18;100654.42;1747626;80;21287;-72
2022/10/24 04:04:19;;;;;;;11.80;6.40;;;;;;;13.58;73.19;100661.39;1752723;80;21371;-72
2022/10/24 04:06:45;;;;;;;9.90;6.13;;;;;;;13.58;73.23;100662.73;1758788;80;21253;-72
2022/10/24 04:09:12;;;;;;;10.07;6.00;;;;;;;13.59;73.23;100673.76;1758789;80;21399;-72
2022/10/24 04:11:40;;;;;;;11.37;6.13;;;;;;;13.60;73.24;100671.33;1786353;78;21173;-72
2022/10/24 04:14:08;;;;;;;8.07;5.50;;;;;;;13.61;73.28;100675.61;1786619;78;21804;-72
2022/10/24 04:16:36;;;;;;;11.40;6.63;;;;;;;13.60;73.27;100666.77;1781197;80;21279;-73
2022/10/24 04:19:03;;;;;;;9.33;5.77;;;;;;;13.59;73.29;100667.84;1789079;80;21212;-73
2022/10/24 04:21:30;;;;;;;8.03;5.60;;;;;;;13.60;73.30;100670.79;1787856;80;21321;-72
2022/10/24 04:23:57;;;;;;;11.47;6.50;;;;;;;13.59;73.32;100678.58;1774841;80;21265;-71
2022/10/24 04:26:24;;;;;;;11.20;6.63;;;;;;;13.59;73.36;100672.42;1770633;81;21213;-72
2022/10/24 04:28:50;;;;;;;9.07;5.70;;;;;;;13.60;73.37;100673.47;1782755;78;21242;-72
2022/10/24 04:31:20;;;;;;;9.53;5.90;;;;;;;13.62;73.36;100679.89;1788423;80;21199;-72
2022/10/24 04:33:47;;;;;;;10.37;6.17;;;;;;;13.64;73.34;100680.43;1787608;80;21014;-72
2022/10/24 04:36:14;;;;;;;9.13;5.70;;;;;;;13.63;73.34;100674.81;1788681;80;21242;-72
2022/10/24 04:38:40;;;;;;;8.60;5.70;;;;;;;13.62;73.38;100678.55;1792017;80;21335;-73
2022/10/24 04:41:07;;;;;;;11.17;6.17;;;;;;;13.63;73.34;100678.03;1781129;80;21253;-73
2022/10/24 04:43:34;;;;;;;10.50;6.13;;;;;;;13.60;73.35;100675.36;1790909;79;21699;-71
2022/10/24 04:46:02;;;;;;;8.90;5.97;;;;;;;13.58;73.40;100678.84;1747401;80;21209;-72
2022/10/24 04:48:30;;;;;;;8.07;5.50;;;;;;;13.57;73.42;100686.09;1757528;81;21728;-72
2022/10/24 04:50:57;;;;;;;9.57;6.17;;;;;;;13.58;73.49;100697.08;1740453;81;21338;-72
2022/10/24 04:53:26;;;;;;;9.20;6.10;;;;;;;13.59;73.51;100695.23;1781176;80;21323;-72
2022/10/24 04:55:53;;;;;;;9.53;6.77;;;;;;;13.60;73.57;100700.31;1727927;83;21269;-72
2022/10/24 04:58:19;;;;;;;11.27;6.27;;;;;;;13.62;73.57;100704.05;1728562;81;21269;-72
2022/10/24 05:00:49;;;;;;;11.27;6.93;;;;;;;13.65;73.60;100710.76;1779468;80;21271;-72
2022/10/24 05:03:19;;;;;;;11.27;6.83;;;;;;;13.67;73.56;100709.41;1757489;81;21344;-72
2022/10/24 05:05:47;;;;;;;11.10;6.47;;;;;;;13.77;73.37;100715.28;1789356;80;21214;-72
2022/10/24 05:08:15;;;;;;;10.37;6.77;;;;;;;13.80;73.26;100711.52;1757069;81;21071;-72
2022/10/24 05:10:43;;;;;;;12.57;6.90;;;;;;;13.83;73.18;100714.99;1777443;80;21185;-71
2022/10/24 05:13:12;;;;;;;10.90;7.13;;;;;;;13.84;73.15;100711.22;1770233;79;21220;-71
2022/10/24 05:15:39;;;;;;;9.77;7.10;;;;;;;13.88;73.11;100710.67;1773676;80;21271;-72
2022/10/24 05:18:06;;;;;;;8.97;6.33;;;;;;;13.90;73.04;100716.04;1773150;80;21265;-72
2022/10/24 05:20:32;;;;;;;10.77;7.40;;;;;;;13.96;73.01;100715.48;1787998;79;21313;-72
2022/10/24 05:22:59;;;;;;;9.50;6.43;;;;;;;13.98;72.86;100721.37;1757907;81;21270;-72
2022/10/24 05:25:26;;;;;;;10.60;7.40;;;;;;;13.98;72.81;100727.53;1729704;81;21275;-72
2022/10/24 05:27:52;;;;;;;10.00;6.80;;;;;;;14.02;72.76;100725.93;1757666;81;21270;-72
2022/10/24 05:30:19;;;;;;;10.17;6.30;;;;;;;14.07;72.76;100727.78;1757372;81;21306;-72
2022/10/24 05:32:49;;;;;;;9.57;7.17;;;;;;;14.11;72.65;100732.85;1757703;81;21287;-72
2022/10/24 05:35:20;;;;;;;11.27;7.57;;;;;;;14.12;72.59;100729.11;1745117;81;21371;-72
2022/10/24 05:37:47;;;;;;;10.73;8.00;;;;;;;14.17;72.56;100733.64;1740763;81;21340;-71
2022/10/24 05:40:13;;;;;;;10.57;8.70;;;;;;;14.22;72.48;100730.40;1758206;81;21189;-72
2022/10/24 05:42:40;;;;;;;11.23;8.20;;;;;;;14.25;72.35;100729.05;1787752;80;21389;-72
2022/10/24 05:45:07;;;;;;;10.87;7.37;;;;;;;14.31;72.36;100734.12;1757111;81;21319;-73
2022/10/24 05:47:35;;;;;;;9.00;6.70;;;;;;;14.36;72.36;100730.59;1788847;80;21432;-73
2022/10/24 05:50:02;;;;;;;12.17;7.90;;;;;;;14.46;72.24;100731.86;1757823;81;21371;-73
2022/10/24 05:52:29;;;;;;;11.43;6.83;;;;;;;14.47;72.04;100729.43;1786383;79;22164;-74
2022/10/24 05:54:56;;;;;;;9.53;7.00;;;;;;;14.54;71.77;100737.21;1743853;82;21547;-72
2022/10/24 05:57:24;;;;;;;10.10;7.30;;;;;;;14.54;71.77;100737.21;1741019;81;21522;-73
2022/10/24 05:59:51;;;;;;;10.70;7.30;;;;;;;14.61;71.39;100744.45;1779583;80;21397;-73
2022/10/24 06:02:19;;;;;;;10.10;7.40;;;;;;;14.61;71.39;100744.45;1770158;79;21372;-72
2022/10/24 06:04:45;;;;;;;13.40;7.03;;;;;;;14.63;71.62;100747.64;1784381;80;21807;-72
2022/10/24 06:07:12;;;;;;;10.87;7.10;;;;;;;14.75;71.10;100752.69;1746101;81;21560;-72
2022/10/24 06:09:40;;;;;;;11.27;7.40;;;;;;;14.75;71.10;100752.69;1757887;81;21462;-73
2022/10/24 06:12:08;;;;;;;13.13;7.67;;;;;;;14.83;71.33;100756.66;1756627;80;21539;-72
2022/10/24 06:14:37;;;;;;;10.10;7.53;;;;;;;14.89;71.25;100747.47;1766720;80;21492;-74
2022/10/24 06:17:05;;;;;;;12.33;7.40;;;;;;;15.03;71.27;100753.00;1758408;80;21649;-74
2022/10/24 06:19:35;;;;;;;10.50;7.33;;;;;;;15.16;71.04;100754.49;1757504;80;21840;-74
2022/10/24 06:22:03;;;;;;;11.60;7.60;;;;;;;15.28;70.88;100752.78;1758522;81;21736;-72
2022/10/24 06:24:30;;;;;;;12.53;7.97;;;;;;;15.37;70.75;100755.67;1788220;80;21730;-72
2022/10/24 06:26:57;;;;;;;11.83;7.47;;;;;;;15.51;70.50;100756.60;1756385;81;21765;-73
2022/10/24 06:29:24;;;;;;;10.30;7.13;;;;;;;15.62;70.17;100759.98;1775026;80;21737;-72
2022/10/24 06:31:50;;;;;;;10.63;7.40;;;;;;;15.71;69.95;100759.66;1782687;80;22247;-72
2022/10/24 06:34:17;;;;;;;10.83;7.50;;;;;;;15.81;69.64;100756.84;1778772;78;21644;-73
2022/10/24 06:36:50;;;;;;;12.87;7.70;;;;;;;15.91;69.26;100759.97;1786541;78;21730;-71
2022/10/24 06:39:20;;;;;;;12.43;7.90;;;;;;;15.99;68.90;100766.60;1532978;78;10000485;-72
2022/10/24 06:41:47;;;;;;;10.73;7.73;;;;;;;16.04;68.54;100767.34;1616553;81;10000337;-74
2022/10/24 06:44:15;;;;;;;11.13;7.20;;;;;;;16.02;68.24;100762.78;1776100;80;21074;-72
2022/10/24 06:46:42;;;;;;;12.67;8.60;;;;;;;16.03;68.08;100765.75;1757024;80;21715;-72
2022/10/24 06:49:10;;;;;;;12.20;9.20;;;;;;;16.05;67.90;100769.49;1787146;80;22229;-72
2022/10/24 06:51:37;;;;;;;11.40;8.37;;;;;;;16.07;67.72;100778.10;1725056;80;22280;-72
2022/10/24 06:54:03;;;;;;;13.03;8.73;;;;;;;16.08;67.57;100776.45;1755819;80;21706;-72
2022/10/24 06:56:33;;;;;;;16.63;9.43;;;;;;;16.10;67.21;100766.20;1784273;80;21289;-75
2022/10/24 06:59:01;;;;;;;12.00;8.43;;;;;;;16.18;67.31;100770.14;1750168;81;22111;-75
2022/10/24 07:01:30;;;;;;;11.70;8.30;;;;;;;16.20;67.01;100772.56;1787337;80;21707;-75
2022/10/24 07:04:00;;;;;;;12.37;8.77;;;;;;;16.08;66.83;100779.15;1780062;80;21793;-72
2022/10/24 07:06:28;;;;;;;12.50;9.00;;;;;;;16.00;66.92;100785.73;1765928;80;21735;-73
2022/10/24 07:08:57;;;;;;;12.43;8.93;;;;;;;15.98;66.99;100783.86;1756815;80;21718;-72
2022/10/24 07:11:24;;;;;;;12.53;9.07;;;;;;;15.95;67.12;100767.72;1770737;80;21715;-71
2022/10/24 07:13:51;;;;;;;11.93;8.47;;;;;;;15.95;67.12;100767.72;1786992;80;21082;-72
2022/10/24 07:16:21;;;;;;;12.47;8.10;;;;;;;16.00;67.28;100772.27;1777395;80;21301;-73
2022/10/24 07:18:48;;;;;;;10.77;7.43;;;;;;;16.03;67.22;100773.84;1765525;80;21411;-71
2022/10/24 07:21:18;;;;;;;12.50;8.27;;;;;;;16.02;67.15;100776.25;1744992;81;21816;-72
2022/10/24 07:23:45;;;;;;;11.60;7.87;;;;;;;15.97;67.23;100776.33;1724249;81;21086;-72
2022/10/24 07:26:14;;;;;;;10.13;7.50;;;;;;;15.97;67.30;100782.27;1786753;80;21046;-73
2022/10/24 07:28:43;;;;;;;10.63;8.00;;;;;;;15.94;67.32;100784.44;1765648;80;21519;-72
2022/10/24 07:31:13;;;;;;;10.33;7.80;;;;;;;15.90;67.54;100782.06;1777613;80;21628;-73
2022/10/24 07:33:40;;;;;;;12.53;7.80;;;;;;;15.92;67.58;100783.91;1781018;80;22068;-72
2022/10/24 07:36:07;;;;;;;10.80;7.57;;;;;;;15.94;67.41;100787.67;1775439;80;21515;-73
2022/10/24 07:38:36;;;;;;;11.03;7.97;;;;;;;15.87;67.62;100777.25;1774883;80;21052;-73
2022/10/24 07:41:05;;;;;;;17.10;9.70;;;;;;;15.87;67.62;100777.25;1777641;80;21026;-72
2022/10/24 07:43:31;;;;;;;16.87;9.20;;;;;;;15.89;67.56;100772.91;1773319;80;21047;-71
2022/10/24 07:45:58;;;;;;;130.70;18.40;;;;;;;15.94;67.68;100757.50;1730459;80;21789;-73
2022/10/24 07:48:26;;;;;;;62.10;13.17;;;;;;;16.06;67.81;100775.95;1763734;80;21110;-73
2022/10/24 07:50:53;;;;;;;91.60;17.37;;;;;;;16.17;67.47;100784.16;1767727;79;22202;-72
2022/10/24 07:53:20;;;;;;;105.63;18.27;;;;;;;16.28;67.08;100781.33;1818496;78;20959;-72
2022/10/24 07:55:50;;;;;;;22.77;9.73;;;;;;;16.28;67.08;100781.33;1421394;78;10000537;-74
2022/10/24 07:58:16;;;;;;;28.47;9.97;;;;;;;16.34;67.02;100784.22;1820939;78;21462;-71
2022/10/24 08:00:46;;;;;;;20.20;9.80;;;;;;;16.36;66.80;100778.01;1747588;81;22217;-73
2022/10/24 08:03:13;;;;;;;41.77;11.67;;;;;;;16.38;66.68;100782.55;1758164;81;21894;-73
2022/10/24 08:05:40;;;;;;;29.20;10.60;;;;;;;16.34;66.47;100780.18;1766510;81;21809;-73
2022/10/24 08:08:07;;;;;;;17.63;9.10;;;;;;;16.31;66.59;100779.41;1764229;81;21118;-72
2022/10/24 08:10:34;;;;;;;12.37;8.83;;;;;;;16.31;66.59;100779.41;1766572;81;21106;-72
2022/10/24 08:13:03;;;;;;;12.20;8.77;;;;;;;16.37;66.62;100776.36;1767008;81;21680;-72
2022/10/24 08:15:30;;;;;;;40.93;10.80;;;;;;;16.46;66.54;100777.87;1763924;80;21167;-74
2022/10/24 08:17:58;;;;;;;19.83;9.80;;;;;;;16.51;66.22;100776.98;1776220;80;21094;-72
2022/10/24 08:20:25;;;;;;;13.17;8.47;;;;;;;16.50;66.19;100776.19;1782118;80;21566;-72
2022/10/24 08:22:55;;;;;;;12.40;8.73;;;;;;;16.57;66.11;100773.13;1782150;80;21086;-76
2022/10/24 08:25:22;;;;;;;12.50;8.20;;;;;;;16.61;66.02;100774.94;1781722;80;21074;-73
2022/10/24 08:27:49;;;;;;;10.13;8.00;;;;;;;16.62;65.83;100771.16;1778795;79;21145;-73
2022/10/24 08:30:16;;;;;;;10.17;8.00;;;;;;;16.61;65.70;100768.75;1782652;80;21047;-73
2022/10/24 08:32:44;;;;;;;11.33;8.37;;;;;;;16.55;65.81;100763.16;1767498;81;21018;-74
2022/10/24 08:35:17;;;;;;;10.07;8.43;;;;;;;16.61;65.97;100762.80;1782724;80;21047;-73
2022/10/24 08:37:44;;;;;;;11.03;7.73;;;;;;;16.73;65.96;100772.36;1756455;81;21078;-72
2022/10/24 08:40:15;;;;;;;25.37;10.30;;;;;;;16.83;65.67;100769.53;1784986;80;21110;-72
2022/10/24 08:42:43;;;;;;;25.63;11.00;;;;;;;16.86;65.43;100773.00;1782871;79;21012;-72
2022/10/24 08:45:22;;;;;;;21.47;10.10;;;;;;;16.96;65.27;100776.88;1717535;83;21041;-75
2022/10/24 08:47:56;;;;;;;14.57;9.83;;;;;;;17.00;64.81;100779.80;1733495;81;21101;-73
2022/10/24 08:50:32;;;;;;;24.47;10.37;;;;;;;17.04;64.69;100774.84;1787878;78;21557;-73
2022/10/24 08:53:06;;;;;;;12.87;8.60;;;;;;;17.05;64.34;100777.82;1777531;80;21131;-72
2022/10/24 08:55:43;;;;;;;10.07;7.20;;;;;;;17.05;64.21;100774.33;1784093;80;21680;-72
2022/10/24 08:58:30;;;;;;;17.20;9.60;;;;;;;17.05;64.03;100767.03;1786836;80;21063;-73
2022/10/24 09:00:59;;;;;;;12.73;9.40;;;;;;;16.99;64.00;100768.75;1786939;79;21652;-73
2022/10/24 09:03:42;;;;;;;11.70;9.00;;;;;;;17.03;64.14;100762.46;1767734;80;21094;-71
2022/10/24 09:06:18;;;;;;;12.23;9.57;;;;;;;17.07;63.88;100771.56;1786879;80;21140;-72
2022/10/24 09:09:07;;;;;;;19.80;11.13;;;;;;;16.99;63.70;100774.16;1766293;80;21051;-71
2022/10/24 09:11:55;;;;;;;19.83;10.13;;;;;;;17.01;63.93;100778.16;1785723;80;21070;-72
2022/10/24 09:14:31;;;;;;;26.30;10.03;;;;;;;17.04;63.80;100774.84;1747251;80;21034;-72
2022/10/24 09:17:04;;;;;;;27.03;10.83;;;;;;;17.00;63.60;100777.89;1786769;80;21093;-74
2022/10/24 09:19:30;;;;;;;27.93;11.48;;;;;;;16.99;63.82;100780.89;1772820;80;21103;-72
2022/10/24 09:21:58;;;;;;;25.20;11.50;;;;;;;17.05;63.84;100780.52;1721152;83;21050;-72
2022/10/24 09:24:46;;;;;;;121.67;19.83;;;;;;;17.10;63.77;100779.63;1774673;80;21082;-73
2022/10/24 09:27:20;;;;;;;19.63;10.30;;;;;;;17.13;63.70;100780.39;1771652;80;21250;-72
2022/10/24 09:29:47;;;;;;;12.27;8.87;;;;;;;17.16;63.50;100774.40;1777085;80;21090;-72
2022/10/24 09:32:25;;;;;;;20.57;10.00;;;;;;;17.18;63.41;100779.52;1782643;80;21566;-72
2022/10/24 09:34:52;;;;;;;15.80;9.63;;;;;;;17.14;63.33;100783.33;1772453;79;21066;-72
2022/10/24 09:37:47;;;;;;;11.40;8.40;;;;;;;17.08;63.40;100781.28;1746996;81;21085;-72
2022/10/24 09:40:26;;;;;;;14.10;9.73;;;;;;;17.09;63.43;100781.52;1785586;79;21529;-73
2022/10/24 09:42:59;;;;;;;11.13;8.57;;;;;;;17.13;63.42;100775.55;1756535;81;21061;-72
2022/10/24 09:45:47;;;;;;;10.47;8.40;;;;;;;17.18;63.38;100778.17;1761962;80;21112;-72
2022/10/24 09:48:19;;;;;;;11.33;9.20;;;;;;;17.18;63.26;100777.61;1779778;80;21034;-73
2022/10/24 09:50:47;;;;;;;14.13;9.00;;;;;;;17.19;63.25;100771.66;1766087;80;21026;-73
2022/10/24 09:53:27;;;;;;;15.97;9.27;;;;;;;17.24;63.25;100771.04;1758430;80;21510;-72
2022/10/24 09:55:58;;;;;;;15.83;8.80;;;;;;;17.32;63.27;100774.95;1784630;80;21541;-73
2022/10/24 09:58:32;;;;;;;9.83;8.48;;;;;;;17.40;63.15;100772.11;1739599;79;21401;-72
2022/10/24 10:01:15;;;;;;;9.37;7.93;;;;;;;17.43;62.99;100768.81;1757282;81;21687;-72
2022/10/24 10:03:42;;;;;;;10.37;7.87;;;;;;;17.44;62.84;100773.10;1785345;80;20952;-72
2022/10/24 10:06:18;;;;;;;10.33;8.17;;;;;;;17.51;62.81;100772.19;1750466;81;21086;-71
2022/10/24 10:08:50;;;;;;;10.17;8.30;;;;;;;17.56;62.81;100770.73;1786495;80;20943;-72
2022/10/24 10:11:32;;;;;;;10.40;8.07;;;;;;;17.61;62.65;100771.20;1754287;81;21125;-71
2022/10/24 10:14:00;;;;;;;10.90;8.20;;;;;;;17.56;62.63;100767.48;1757097;80;20987;-74
2022/10/24 10:16:37;;;;;;;10.53;8.03;;;;;;;17.56;62.58;100774.23;1756039;81;21536;-72
2022/10/24 10:19:19;;;;;;;10.50;8.33;;;;;;;17.56;62.54;100775.58;1736350;81;21130;-73
2022/10/24 10:22:00;;;;;;;11.13;8.63;;;;;;;17.54;62.46;100771.05;1749410;81;21094;-73
2022/10/24 10:24:40;;;;;;;13.13;10.17;;;;;;;17.49;62.56;100767.62;1739299;81;21146;-71
2022/10/24 10:27:36;;;;;;;12.63;9.13;;;;;;;17.50;62.67;100774.06;1744350;80;21598;-72
2022/10/24 10:30:14;;;;;;;9.93;7.20;;;;;;;17.51;62.77;100767.59;1752026;81;21435;-73
2022/10/24 10:33:19;;;;;;;10.03;8.10;;;;;;;17.59;62.72;100774.19;1760909;81;21019;-73
2022/10/24 10:36:09;;;;;;;12.83;8.33;;;;;;;17.58;62.61;100772.04;1747697;81;21596;-71
2022/10/24 10:39:05;;;;;;;11.80;8.37;;;;;;;17.61;62.52;100775.25;1762454;79;21935;-72
2022/10/24 10:41:40;;;;;;;11.53;8.40;;;;;;;17.44;61.88;100771.75;1750863;79;21494;-72
2022/10/24 10:44:33;;;;;;;11.37;8.60;;;;;;;17.19;61.91;100773.02;1773008;80;20992;-74
2022/10/24 10:47:06;;;;;;;;;;;;;;;17.03;62.15;100773.81;1773384;79;20995;-72
2022/10/24 10:49:40;;;;;;;9.60;7.50;;;;;;;16.88;62.42;100768.13;1759121;80;20209;-73
2022/10/24 10:52:32;;;;;;;12.10;8.37;;;;;;;16.75;62.86;100768.84;1753330;81;21250;-72
2022/10/24 10:55:32;;;;;;;11.57;8.27;;;;;;;16.72;63.10;100768.87;1753827;80;21015;-72
2022/10/24 10:58:29;;;;;;;9.73;7.60;;;;;;;16.67;63.24;100762.19;1637306;86;21063;-73
2022/10/24 11:01:13;;;;;;;12.70;9.33;;;;;;;16.64;63.53;100755.47;1779458;80;21216;-73
2022/10/24 11:04:19;;;;;;;11.07;7.97;;;;;;;16.68;63.76;100754.34;1702636;81;21528;-73
2022/10/24 11:07:02;;;;;;;11.27;7.43;;;;;;;16.81;63.79;100747.44;1788961;80;20984;-74
2022/10/24 11:09:48;;;;;;;9.85;6.35;;;;;;;16.98;63.36;100759.86;1758770;80;21047;-74
2022/10/24 11:12:37;;;;;;;9.83;7.37;;;;;;;17.02;63.12;100758.17;1729235;81;21126;-74
2022/10/24 11:15:36;;;;;;;11.03;7.40;;;;;;;17.14;63.18;100764.44;1771288;80;20976;-72
2022/10/24 11:18:30;;;;;;;8.93;7.53;;;;;;;17.30;62.83;100769.83;1751624;80;20932;-72
2022/10/24 11:21:07;;;;;;;8.37;6.67;;;;;;;17.38;62.42;100761.61;1766351;79;21307;-73
2022/10/24 11:23:58;;;;;;;10.23;6.80;;;;;;;17.42;61.96;100762.61;1768622;81;21184;-71
2022/10/24 11:26:33;;;;;;;9.63;6.47;;;;;;;17.40;61.32;100758.60;1783460;79;21545;-72
2022/10/24 11:29:26;;;;;;;9.23;5.97;;;;;;;17.34;61.20;100757.36;1782852;80;21008;-73
2022/10/24 11:32:05;;;;;;;11.40;6.20;;;;;;;17.30;60.82;100764.42;1783124;79;20936;-72
2022/10/24 11:34:54;;;;;;;10.43;6.28;;;;;;;17.22;60.90;100758.93;1758112;81;21182;-72
2022/10/24 11:37:30;;;;;;;7.23;5.27;;;;;;;17.17;60.80;100755.75;1787591;80;20996;-73
2022/10/24 11:40:08;;;;;;;7.63;6.17;;;;;;;17.13;60.90;100758.80;1754893;81;21006;-73
2022/10/24 11:42:52;;;;;;;9.30;5.83;;;;;;;17.06;60.93;100765.13;1789151;80;22057;-72
2022/10/24 11:45:22;;;;;;;8.63;6.97;;;;;;;17.03;61.25;100763.02;1757191;81;21113;-73